22:03
Airports
History
Links
Donate
Help keep this website running!
PayPal
Bitcoin
This page is community maintained. The information is intended for PC simulator navigation or reference.
Always use approved charts for navigation.
ETNN
NORVENICH
NORVENICH (ETNN)
Nörvenich, Nordrhein-Westfalen, Germany (52388)
(C)
Lat/Lng:50° 49' 52.18" N / 6° 39' 29.2" E
50.831161 / 6.65811
Elevation:386'ft / 118mMSL
ID / ICAO:ETNN
Runways:1
Longest:07-25
Asphalt 2,430m / 7,973ft
Controlled:Yes
METAR21:20 GMT 2017-10-16
Altimeter: 30.15
Visibility: 6.2 statute miles
Wind: 3 knots (from VRB°)
Temp: 16°c / 61°f
Humidity: 72.2%

METAR: ETNN 162120Z VRB03KT 9999 FEW230 16/11 Q1021 BLU+

(Powered by phpweather)
Airport Radio Frequencies
Tower: 122.1, 136.2
Approach: 126.32, 128.5, 123.3, 129.85, 138.2
Nearby VORs <50NM
Nearby NDBs
Runway 07 / 25
Dimensions:2430.1 x 45.1m 7973' x 148'ft
Surface:Asphalt
Edge Lights:Low intensity
Runway 07 [A]Runway 25 [B]
Heading:066°TH 246°TH
Lat:
Lng:
50° 49' 36.56"N
6° 38' 31.99"E
50° 50' 7.8"N
6° 40' 26.4"E
ALS:MALSMALS
User Notes and Comments
50° 49' 52.18" N / 6° 39' 29.2" E
Distance To
Airport ID:
Nearby Airports
(U) Aachen Merzbruck 20.6 NM
EDKA W 268°
(C) Koln Bonn 21.3 NM
EDDK ( WX ) E 83°
(C) Bonn-Hangelar 22.5 NM
EDKB E 100°
(U) Bad Neuenahr Ahrweiler 28.2 NM
EDRA SE 131°
(C) GEILENKIRCHEN 28.3 NM
ETNG ( WX ) WNW 288°
(C) Monchengladbach 28.4 NM
EDLN ( WX ) NNW 346°
(U) DAHLEMER BINZ 29.9 NM
EDKV S 190°
VFR Chart
Flight Planning at SkyVector.com